sensor_id;sensor_type;location;lat;lon;timestamp;P1;durP1;ratioP1;P2;durP2;ratioP2
73452;SDS011;61687;56.232;43.854;2023-02-02T00:01:55;46.88;;;18.20;;
73452;SDS011;61687;56.232;43.854;2023-02-02T00:04:27;48.20;;;18.45;;
73452;SDS011;61687;56.232;43.854;2023-02-02T00:06:56;52.08;;;17.73;;
73452;SDS011;61687;56.232;43.854;2023-02-02T00:09:23;50.88;;;18.35;;
73452;SDS011;61687;56.232;43.854;2023-02-02T00:11:52;50.97;;;18.63;;
73452;SDS011;61687;56.232;43.854;2023-02-02T00:14:18;51.67;;;17.80;;
73452;SDS011;61687;56.232;43.854;2023-02-02T00:16:48;53.30;;;18.70;;
73452;SDS011;61687;56.232;43.854;2023-02-02T00:19:16;50.20;;;18.08;;
73452;SDS011;61687;56.232;43.854;2023-02-02T00:21:51;54.43;;;17.83;;
73452;SDS011;61687;56.232;43.854;2023-02-02T00:24:18;48.65;;;17.27;;
73452;SDS011;61687;56.232;43.854;2023-02-02T00:26:46;51.72;;;18.38;;
73452;SDS011;61687;56.232;43.854;2023-02-02T00:29:15;45.15;;;16.73;;
73452;SDS011;61687;56.232;43.854;2023-02-02T00:31:49;49.50;;;18.52;;
73452;SDS011;61687;56.232;43.854;2023-02-02T00:34:16;45.87;;;18.07;;
73452;SDS011;61687;56.232;43.854;2023-02-02T00:36:45;49.20;;;17.27;;
73452;SDS011;61687;56.232;43.854;2023-02-02T00:39:16;47.03;;;18.58;;
73452;SDS011;61687;56.232;43.854;2023-02-02T00:41:44;47.10;;;18.02;;
73452;SDS011;61687;56.232;43.854;2023-02-02T00:44:10;51.72;;;18.45;;
73452;SDS011;61687;56.232;43.854;2023-02-02T00:46:55;53.43;;;17.57;;
73452;SDS011;61687;56.232;43.854;2023-02-02T00:49:22;54.38;;;19.13;;
73452;SDS011;61687;56.232;43.854;2023-02-02T00:51:49;52.00;;;19.27;;
73452;SDS011;61687;56.232;43.854;2023-02-02T00:54:15;52.10;;;18.05;;
73452;SDS011;61687;56.232;43.854;2023-02-02T00:56:41;51.67;;;18.43;;
73452;SDS011;61687;56.232;43.854;2023-02-02T00:59:07;54.90;;;20.35;;
73452;SDS011;61687;56.232;43.854;2023-02-02T01:01:33;53.05;;;19.05;;
73452;SDS011;61687;56.232;43.854;2023-02-02T01:03:59;54.53;;;18.45;;
73452;SDS011;61687;56.232;43.854;2023-02-02T01:06:26;56.58;;;19.20;;
73452;SDS011;61687;56.232;43.854;2023-02-02T01:08:52;53.38;;;19.42;;
73452;SDS011;61687;56.232;43.854;2023-02-02T01:11:18;58.33;;;18.80;;
73452;SDS011;61687;56.232;43.854;2023-02-02T01:13:44;56.83;;;19.35;;
73452;SDS011;61687;56.232;43.854;2023-02-02T01:16:11;50.85;;;18.05;;
73452;SDS011;61687;56.232;43.854;2023-02-02T01:18:38;53.40;;;18.97;;
73452;SDS011;61687;56.232;43.854;2023-02-02T01:21:06;61.50;;;19.88;;
73452;SDS011;61687;56.232;43.854;2023-02-02T01:23:35;57.80;;;20.30;;
73452;SDS011;61687;56.232;43.854;2023-02-02T01:26:03;55.20;;;18.80;;
73452;SDS011;61687;56.232;43.854;2023-02-02T01:28:30;54.55;;;19.45;;
73452;SDS011;61687;56.232;43.854;2023-02-02T01:30:57;50.67;;;19.10;;
73452;SDS011;61687;56.232;43.854;2023-02-02T01:33:23;54.90;;;19.00;;
73452;SDS011;61687;56.232;43.854;2023-02-02T01:35:53;55.95;;;19.33;;
73452;SDS011;61687;56.232;43.854;2023-02-02T01:38:22;54.95;;;18.80;;
73452;SDS011;61687;56.232;43.854;2023-02-02T01:46:04;54.88;;;20.20;;
73452;SDS011;61687;56.232;43.854;2023-02-02T01:48:31;55.65;;;20.50;;
73452;SDS011;61687;56.232;43.854;2023-02-02T01:51:01;56.65;;;21.38;;
73452;SDS011;61687;56.232;43.854;2023-02-02T01:53:33;55.20;;;19.87;;
73452;SDS011;61687;56.232;43.854;2023-02-02T01:55:59;56.03;;;19.15;;
73452;SDS011;61687;56.232;43.854;2023-02-02T01:58:30;54.00;;;19.50;;
73452;SDS011;61687;56.232;43.854;2023-02-02T02:01:00;54.00;;;20.60;;
73452;SDS011;61687;56.232;43.854;2023-02-02T02:03:28;60.05;;;20.08;;
73452;SDS011;61687;56.232;43.854;2023-02-02T02:05:59;65.13;;;20.23;;
73452;SDS011;61687;56.232;43.854;2023-02-02T02:08:29;61.95;;;21.13;;
73452;SDS011;61687;56.232;43.854;2023-02-02T02:10:55;56.47;;;19.90;;
73452;SDS011;61687;56.232;43.854;2023-02-02T02:13:23;57.00;;;20.70;;
73452;SDS011;61687;56.232;43.854;2023-02-02T02:19:07;63.87;;;22.03;;
73452;SDS011;61687;56.232;43.854;2023-02-02T02:22:47;53.33;;;19.52;;
73452;SDS011;61687;56.232;43.854;2023-02-02T02:37:10;62.00;;;20.40;;
73452;SDS011;61687;56.232;43.854;2023-02-02T02:39:55;61.88;;;20.58;;
73452;SDS011;61687;56.232;43.854;2023-02-02T02:42:29;57.35;;;19.23;;
73452;SDS011;61687;56.232;43.854;2023-02-02T02:44:59;57.35;;;20.20;;
73452;SDS011;61687;56.232;43.854;2023-02-02T02:47:29;55.40;;;19.73;;
73452;SDS011;61687;56.232;43.854;2023-02-02T02:49:56;61.15;;;19.88;;
73452;SDS011;61687;56.232;43.854;2023-02-02T02:52:22;57.50;;;18.65;;
73452;SDS011;61687;56.232;43.854;2023-02-02T02:54:49;49.00;;;18.23;;
73452;SDS011;61687;56.232;43.854;2023-02-02T03:00:17;48.72;;;17.00;;
73452;SDS011;61687;56.232;43.854;2023-02-02T03:03:04;55.95;;;20.08;;
73452;SDS011;61687;56.232;43.854;2023-02-02T03:05:55;57.92;;;19.73;;
73452;SDS011;61687;56.232;43.854;2023-02-02T03:08:39;49.65;;;18.17;;
73452;SDS011;61687;56.232;43.854;2023-02-02T03:11:12;52.72;;;19.67;;
73452;SDS011;61687;56.232;43.854;2023-02-02T03:13:40;49.63;;;18.70;;
73452;SDS011;61687;56.232;43.854;2023-02-02T03:16:07;52.72;;;18.25;;
73452;SDS011;61687;56.232;43.854;2023-02-02T03:18:34;49.60;;;18.20;;
73452;SDS011;61687;56.232;43.854;2023-02-02T03:21:00;51.20;;;18.50;;
73452;SDS011;61687;56.232;43.854;2023-02-02T03:23:26;48.53;;;19.50;;
73452;SDS011;61687;56.232;43.854;2023-02-02T03:25:52;49.22;;;17.60;;
73452;SDS011;61687;56.232;43.854;2023-02-02T03:28:19;53.00;;;18.60;;
73452;SDS011;61687;56.232;43.854;2023-02-02T03:30:47;49.28;;;19.08;;
73452;SDS011;61687;56.232;43.854;2023-02-02T03:33:14;54.50;;;17.92;;
73452;SDS011;61687;56.232;43.854;2023-02-02T03:35:40;48.57;;;18.17;;
73452;SDS011;61687;56.232;43.854;2023-02-02T03:38:06;43.47;;;17.85;;
73452;SDS011;61687;56.232;43.854;2023-02-02T03:40:33;52.60;;;17.55;;
73452;SDS011;61687;56.232;43.854;2023-02-02T03:42:59;49.10;;;18.48;;
73452;SDS011;61687;56.232;43.854;2023-02-02T03:45:26;47.65;;;18.75;;
73452;SDS011;61687;56.232;43.854;2023-02-02T03:47:52;48.27;;;18.87;;
73452;SDS011;61687;56.232;43.854;2023-02-02T03:50:18;42.30;;;16.25;;
73452;SDS011;61687;56.232;43.854;2023-02-02T03:52:44;52.30;;;18.50;;
73452;SDS011;61687;56.232;43.854;2023-02-02T03:55:10;44.65;;;16.90;;
73452;SDS011;61687;56.232;43.854;2023-02-02T03:57:36;50.07;;;18.67;;
73452;SDS011;61687;56.232;43.854;2023-02-02T04:00:03;49.53;;;17.45;;
73452;SDS011;61687;56.232;43.854;2023-02-02T04:02:37;45.88;;;17.92;;
73452;SDS011;61687;56.232;43.854;2023-02-02T04:05:04;48.58;;;17.13;;
73452;SDS011;61687;56.232;43.854;2023-02-02T04:07:30;43.13;;;17.10;;
73452;SDS011;61687;56.232;43.854;2023-02-02T04:09:56;46.45;;;16.55;;
73452;SDS011;61687;56.232;43.854;2023-02-02T04:12:22;48.08;;;16.73;;
73452;SDS011;61687;56.232;43.854;2023-02-02T04:14:48;42.33;;;15.97;;
73452;SDS011;61687;56.232;43.854;2023-02-02T04:17:14;44.95;;;17.33;;
73452;SDS011;61687;56.232;43.854;2023-02-02T04:19:39;54.45;;;19.70;;
73452;SDS011;61687;56.232;43.854;2023-02-02T04:22:06;50.00;;;17.23;;
73452;SDS011;61687;56.232;43.854;2023-02-02T04:24:32;42.93;;;17.23;;
73452;SDS011;61687;56.232;43.854;2023-02-02T04:26:58;46.53;;;18.52;;
73452;SDS011;61687;56.232;43.854;2023-02-02T04:29:24;51.33;;;20.00;;
73452;SDS011;61687;56.232;43.854;2023-02-02T04:31:50;51.17;;;17.10;;
73452;SDS011;61687;56.232;43.854;2023-02-02T04:34:16;50.85;;;17.08;;
73452;SDS011;61687;56.232;43.854;2023-02-02T04:36:42;52.47;;;17.60;;
73452;SDS011;61687;56.232;43.854;2023-02-02T04:39:12;53.20;;;17.70;;
73452;SDS011;61687;56.232;43.854;2023-02-02T04:41:38;43.10;;;16.80;;
73452;SDS011;61687;56.232;43.854;2023-02-02T04:44:03;51.10;;;17.58;;
73452;SDS011;61687;56.232;43.854;2023-02-02T04:46:31;57.45;;;18.65;;
73452;SDS011;61687;56.232;43.854;2023-02-02T04:48:57;52.70;;;18.52;;
73452;SDS011;61687;56.232;43.854;2023-02-02T04:51:22;49.40;;;18.55;;
73452;SDS011;61687;56.232;43.854;2023-02-02T04:53:48;50.40;;;18.90;;
73452;SDS011;61687;56.232;43.854;2023-02-02T04:56:15;51.28;;;18.70;;
73452;SDS011;61687;56.232;43.854;2023-02-02T04:58:43;54.00;;;18.45;;
73452;SDS011;61687;56.232;43.854;2023-02-02T05:01:16;46.60;;;17.48;;
73452;SDS011;61687;56.232;43.854;2023-02-02T05:03:43;52.20;;;19.38;;
73452;SDS011;61687;56.232;43.854;2023-02-02T05:06:10;47.30;;;18.00;;
73452;SDS011;61687;56.232;43.854;2023-02-02T05:08:36;52.97;;;17.67;;
73452;SDS011;61687;56.232;43.854;2023-02-02T05:11:09;54.13;;;19.23;;
73452;SDS011;61687;56.232;43.854;2023-02-02T05:13:35;50.00;;;19.65;;
73452;SDS011;61687;56.232;43.854;2023-02-02T05:16:01;49.45;;;18.77;;
73452;SDS011;61687;56.232;43.854;2023-02-02T05:18:28;47.90;;;18.95;;
73452;SDS011;61687;56.232;43.854;2023-02-02T05:21:04;47.70;;;18.40;;
73452;SDS011;61687;56.232;43.854;2023-02-02T05:23:30;54.88;;;18.75;;
73452;SDS011;61687;56.232;43.854;2023-02-02T05:25:56;52.50;;;18.42;;
73452;SDS011;61687;56.232;43.854;2023-02-02T05:28:22;57.20;;;18.90;;
73452;SDS011;61687;56.232;43.854;2023-02-02T05:30:49;53.80;;;17.67;;
73452;SDS011;61687;56.232;43.854;2023-02-02T05:33:15;48.80;;;17.98;;
73452;SDS011;61687;56.232;43.854;2023-02-02T05:35:47;51.97;;;18.23;;
73452;SDS011;61687;56.232;43.854;2023-02-02T05:38:14;51.03;;;19.55;;
73452;SDS011;61687;56.232;43.854;2023-02-02T05:40:40;52.87;;;18.53;;
73452;SDS011;61687;56.232;43.854;2023-02-02T05:43:06;50.85;;;17.60;;
73452;SDS011;61687;56.232;43.854;2023-02-02T05:45:33;50.85;;;17.63;;
73452;SDS011;61687;56.232;43.854;2023-02-02T05:47:59;48.63;;;19.57;;
73452;SDS011;61687;56.232;43.854;2023-02-02T05:50:25;53.72;;;18.98;;
73452;SDS011;61687;56.232;43.854;2023-02-02T05:53:00;48.33;;;18.00;;
73452;SDS011;61687;56.232;43.854;2023-02-02T05:55:26;52.83;;;19.20;;
73452;SDS011;61687;56.232;43.854;2023-02-02T05:57:52;47.37;;;17.87;;
73452;SDS011;61687;56.232;43.854;2023-02-02T06:00:19;48.53;;;19.33;;
73452;SDS011;61687;56.232;43.854;2023-02-02T06:02:45;47.58;;;18.65;;
73452;SDS011;61687;56.232;43.854;2023-02-02T06:05:10;49.57;;;18.90;;
73452;SDS011;61687;56.232;43.854;2023-02-02T06:07:36;51.03;;;18.60;;
73452;SDS011;61687;56.232;43.854;2023-02-02T06:10:02;47.80;;;17.40;;
73452;SDS011;61687;56.232;43.854;2023-02-02T06:12:29;61.60;;;19.33;;
73452;SDS011;61687;56.232;43.854;2023-02-02T06:14:54;51.67;;;18.70;;
73452;SDS011;61687;56.232;43.854;2023-02-02T06:17:20;54.35;;;18.67;;
73452;SDS011;61687;56.232;43.854;2023-02-02T06:19:46;48.17;;;17.58;;
73452;SDS011;61687;56.232;43.854;2023-02-02T06:22:12;51.08;;;18.70;;
73452;SDS011;61687;56.232;43.854;2023-02-02T06:24:37;47.80;;;17.67;;
73452;SDS011;61687;56.232;43.854;2023-02-02T06:27:03;48.33;;;18.23;;
73452;SDS011;61687;56.232;43.854;2023-02-02T06:29:29;45.33;;;17.83;;
73452;SDS011;61687;56.232;43.854;2023-02-02T06:31:55;48.67;;;17.57;;
73452;SDS011;61687;56.232;43.854;2023-02-02T06:34:21;49.50;;;18.63;;
73452;SDS011;61687;56.232;43.854;2023-02-02T06:36:47;49.07;;;18.27;;
73452;SDS011;61687;56.232;43.854;2023-02-02T06:39:13;48.63;;;17.75;;
73452;SDS011;61687;56.232;43.854;2023-02-02T06:41:38;44.22;;;17.50;;
73452;SDS011;61687;56.232;43.854;2023-02-02T06:44:04;44.90;;;17.17;;
73452;SDS011;61687;56.232;43.854;2023-02-02T06:46:30;45.35;;;17.58;;
73452;SDS011;61687;56.232;43.854;2023-02-02T06:48:56;45.70;;;17.42;;
73452;SDS011;61687;56.232;43.854;2023-02-02T06:51:22;47.13;;;19.55;;
73452;SDS011;61687;56.232;43.854;2023-02-02T06:53:48;48.85;;;19.05;;
73452;SDS011;61687;56.232;43.854;2023-02-02T06:56:14;44.40;;;18.33;;
73452;SDS011;61687;56.232;43.854;2023-02-02T06:58:40;46.08;;;18.13;;
73452;SDS011;61687;56.232;43.854;2023-02-02T07:01:18;46.08;;;18.27;;
73452;SDS011;61687;56.232;43.854;2023-02-02T07:03:46;49.40;;;19.27;;
73452;SDS011;61687;56.232;43.854;2023-02-02T07:06:14;54.30;;;19.13;;
73452;SDS011;61687;56.232;43.854;2023-02-02T07:08:42;47.78;;;18.25;;
73452;SDS011;61687;56.232;43.854;2023-02-02T07:11:08;48.17;;;19.35;;
73452;SDS011;61687;56.232;43.854;2023-02-02T07:13:34;51.28;;;19.33;;
73452;SDS011;61687;56.232;43.854;2023-02-02T07:16:01;55.53;;;18.53;;
73452;SDS011;61687;56.232;43.854;2023-02-02T07:18:31;48.22;;;18.23;;
73452;SDS011;61687;56.232;43.854;2023-02-02T07:20:57;49.10;;;17.08;;
73452;SDS011;61687;56.232;43.854;2023-02-02T07:23:25;46.63;;;18.00;;
73452;SDS011;61687;56.232;43.854;2023-02-02T07:26:02;47.97;;;18.20;;
73452;SDS011;61687;56.232;43.854;2023-02-02T07:28:29;50.75;;;19.63;;
73452;SDS011;61687;56.232;43.854;2023-02-02T07:30:55;48.92;;;18.67;;
73452;SDS011;61687;56.232;43.854;2023-02-02T07:33:21;48.40;;;18.73;;
73452;SDS011;61687;56.232;43.854;2023-02-02T07:35:47;49.87;;;18.53;;
73452;SDS011;61687;56.232;43.854;2023-02-02T07:38:13;46.45;;;18.70;;
73452;SDS011;61687;56.232;43.854;2023-02-02T07:40:39;44.33;;;17.58;;
73452;SDS011;61687;56.232;43.854;2023-02-02T07:43:04;43.87;;;16.87;;
73452;SDS011;61687;56.232;43.854;2023-02-02T07:45:30;48.67;;;18.75;;
73452;SDS011;61687;56.232;43.854;2023-02-02T07:47:56;51.17;;;19.43;;
73452;SDS011;61687;56.232;43.854;2023-02-02T07:50:23;49.85;;;17.83;;
73452;SDS011;61687;56.232;43.854;2023-02-02T07:52:50;44.17;;;17.80;;
73452;SDS011;61687;56.232;43.854;2023-02-02T07:55:17;45.20;;;17.30;;
73452;SDS011;61687;56.232;43.854;2023-02-02T07:57:43;47.38;;;18.80;;
73452;SDS011;61687;56.232;43.854;2023-02-02T08:00:09;52.27;;;20.17;;
73452;SDS011;61687;56.232;43.854;2023-02-02T08:02:38;44.58;;;18.88;;
73452;SDS011;61687;56.232;43.854;2023-02-02T08:05:04;47.35;;;19.52;;
73452;SDS011;61687;56.232;43.854;2023-02-02T08:07:34;48.90;;;17.95;;
73452;SDS011;61687;56.232;43.854;2023-02-02T08:10:00;44.35;;;18.02;;
73452;SDS011;61687;56.232;43.854;2023-02-02T08:12:26;43.72;;;16.70;;
73452;SDS011;61687;56.232;43.854;2023-02-02T08:14:52;49.58;;;18.13;;
73452;SDS011;61687;56.232;43.854;2023-02-02T08:17:18;49.80;;;18.57;;
73452;SDS011;61687;56.232;43.854;2023-02-02T08:19:44;46.30;;;17.90;;
73452;SDS011;61687;56.232;43.854;2023-02-02T08:22:10;40.63;;;17.05;;
73452;SDS011;61687;56.232;43.854;2023-02-02T08:24:36;50.03;;;18.07;;
73452;SDS011;61687;56.232;43.854;2023-02-02T08:27:07;45.80;;;18.08;;
73452;SDS011;61687;56.232;43.854;2023-02-02T08:29:35;46.15;;;18.52;;
73452;SDS011;61687;56.232;43.854;2023-02-02T08:32:03;49.08;;;18.00;;
73452;SDS011;61687;56.232;43.854;2023-02-02T08:34:29;42.42;;;18.17;;
73452;SDS011;61687;56.232;43.854;2023-02-02T08:36:55;42.17;;;16.93;;
73452;SDS011;61687;56.232;43.854;2023-02-02T08:39:21;43.67;;;17.63;;
73452;SDS011;61687;56.232;43.854;2023-02-02T08:41:47;44.95;;;16.38;;
73452;SDS011;61687;56.232;43.854;2023-02-02T08:44:14;44.50;;;17.20;;
73452;SDS011;61687;56.232;43.854;2023-02-02T08:46:40;42.97;;;15.98;;
73452;SDS011;61687;56.232;43.854;2023-02-02T08:49:10;51.05;;;18.25;;
73452;SDS011;61687;56.232;43.854;2023-02-02T08:51:36;45.65;;;17.25;;
73452;SDS011;61687;56.232;43.854;2023-02-02T08:54:02;42.97;;;16.57;;
73452;SDS011;61687;56.232;43.854;2023-02-02T08:56:28;45.33;;;16.92;;
73452;SDS011;61687;56.232;43.854;2023-02-02T08:58:55;46.47;;;16.67;;
73452;SDS011;61687;56.232;43.854;2023-02-02T09:01:28;43.10;;;17.02;;
73452;SDS011;61687;56.232;43.854;2023-02-02T09:03:57;41.13;;;16.90;;
73452;SDS011;61687;56.232;43.854;2023-02-02T09:06:28;45.05;;;17.27;;
73452;SDS011;61687;56.232;43.854;2023-02-02T09:08:57;45.35;;;18.17;;
73452;SDS011;61687;56.232;43.854;2023-02-02T09:11:23;41.65;;;17.58;;
73452;SDS011;61687;56.232;43.854;2023-02-02T09:13:52;41.88;;;16.60;;
73452;SDS011;61687;56.232;43.854;2023-02-02T09:16:20;41.03;;;18.17;;
73452;SDS011;61687;56.232;43.854;2023-02-02T09:18:46;43.95;;;16.63;;
73452;SDS011;61687;56.232;43.854;2023-02-02T09:21:13;40.45;;;16.95;;
73452;SDS011;61687;56.232;43.854;2023-02-02T09:23:41;39.95;;;17.02;;
73452;SDS011;61687;56.232;43.854;2023-02-02T09:26:09;37.08;;;16.48;;
73452;SDS011;61687;56.232;43.854;2023-02-02T09:28:38;42.92;;;16.48;;
73452;SDS011;61687;56.232;43.854;2023-02-02T09:31:05;39.85;;;16.10;;
73452;SDS011;61687;56.232;43.854;2023-02-02T09:33:32;45.47;;;18.02;;
73452;SDS011;61687;56.232;43.854;2023-02-02T09:36:08;36.72;;;14.75;;
73452;SDS011;61687;56.232;43.854;2023-02-02T09:38:37;43.58;;;17.05;;
73452;SDS011;61687;56.232;43.854;2023-02-02T09:49:14;39.95;;;15.48;;
73452;SDS011;61687;56.232;43.854;2023-02-02T09:51:46;41.38;;;17.83;;
73452;SDS011;61687;56.232;43.854;2023-02-02T09:54:42;39.15;;;16.08;;
73452;SDS011;61687;56.232;43.854;2023-02-02T09:57:13;38.83;;;16.17;;
73452;SDS011;61687;56.232;43.854;2023-02-02T09:59:49;39.00;;;16.23;;
73452;SDS011;61687;56.232;43.854;2023-02-02T10:02:38;43.35;;;17.77;;
73452;SDS011;61687;56.232;43.854;2023-02-02T10:05:07;36.80;;;16.55;;
73452;SDS011;61687;56.232;43.854;2023-02-02T10:07:40;39.08;;;16.88;;
73452;SDS011;61687;56.232;43.854;2023-02-02T10:12:39;37.70;;;15.50;;
73452;SDS011;61687;56.232;43.854;2023-02-02T10:15:20;36.47;;;15.75;;
73452;SDS011;61687;56.232;43.854;2023-02-02T10:18:12;36.15;;;17.20;;
73452;SDS011;61687;56.232;43.854;2023-02-02T10:23:30;42.30;;;16.23;;
73452;SDS011;61687;56.232;43.854;2023-02-02T10:31:17;38.67;;;15.85;;
73452;SDS011;61687;56.232;43.854;2023-02-02T10:34:04;42.03;;;16.17;;
73452;SDS011;61687;56.232;43.854;2023-02-02T10:39:22;38.05;;;14.95;;
73452;SDS011;61687;56.232;43.854;2023-02-02T10:41:56;35.85;;;16.25;;
73452;SDS011;61687;56.232;43.854;2023-02-02T10:47:10;43.63;;;16.60;;
73452;SDS011;61687;56.232;43.854;2023-02-02T10:49:40;37.38;;;16.23;;
73452;SDS011;61687;56.232;43.854;2023-02-02T10:54:46;39.00;;;16.45;;
73452;SDS011;61687;56.232;43.854;2023-02-02T11:02:45;44.58;;;17.25;;
73452;SDS011;61687;56.232;43.854;2023-02-02T11:05:12;40.30;;;17.25;;
73452;SDS011;61687;56.232;43.854;2023-02-02T11:08:04;44.25;;;17.23;;
73452;SDS011;61687;56.232;43.854;2023-02-02T11:10:37;40.60;;;18.13;;
73452;SDS011;61687;56.232;43.854;2023-02-02T11:13:03;45.33;;;17.48;;
73452;SDS011;61687;56.232;43.854;2023-02-02T11:15:32;41.45;;;18.33;;
73452;SDS011;61687;56.232;43.854;2023-02-02T11:18:58;39.08;;;16.35;;
73452;SDS011;61687;56.232;43.854;2023-02-02T11:20:54;41.97;;;17.15;;
73452;SDS011;61687;56.232;43.854;2023-02-02T11:23:21;40.58;;;16.63;;
73452;SDS011;61687;56.232;43.854;2023-02-02T11:25:58;46.42;;;17.95;;
73452;SDS011;61687;56.232;43.854;2023-02-02T11:28:26;40.40;;;17.70;;
73452;SDS011;61687;56.232;43.854;2023-02-02T11:30:55;40.70;;;17.25;;
73452;SDS011;61687;56.232;43.854;2023-02-02T11:33:31;36.70;;;17.45;;
73452;SDS011;61687;56.232;43.854;2023-02-02T11:38:41;37.97;;;16.92;;
73452;SDS011;61687;56.232;43.854;2023-02-02T11:41:07;41.08;;;15.57;;
73452;SDS011;61687;56.232;43.854;2023-02-02T11:43:58;38.17;;;15.37;;
73452;SDS011;61687;56.232;43.854;2023-02-02T11:46:24;41.45;;;17.27;;
73452;SDS011;61687;56.232;43.854;2023-02-02T11:51:26;36.92;;;15.93;;
73452;SDS011;61687;56.232;43.854;2023-02-02T11:54:03;41.63;;;17.33;;
73452;SDS011;61687;56.232;43.854;2023-02-02T11:56:32;35.10;;;14.67;;
73452;SDS011;61687;56.232;43.854;2023-02-02T11:59:00;41.60;;;16.77;;
73452;SDS011;61687;56.232;43.854;2023-02-02T12:04:08;40.38;;;16.27;;
73452;SDS011;61687;56.232;43.854;2023-02-02T12:06:50;42.78;;;17.63;;
73452;SDS011;61687;56.232;43.854;2023-02-02T12:09:16;37.97;;;15.63;;
73452;SDS011;61687;56.232;43.854;2023-02-02T12:17:44;37.05;;;15.77;;
73452;SDS011;61687;56.232;43.854;2023-02-02T12:20:17;35.23;;;15.00;;
73452;SDS011;61687;56.232;43.854;2023-02-02T12:45:41;36.42;;;15.60;;
73452;SDS011;61687;56.232;43.854;2023-02-02T12:56:39;38.45;;;14.85;;
73452;SDS011;61687;56.232;43.854;2023-02-02T13:09:50;33.75;;;14.25;;
73452;SDS011;61687;56.232;43.854;2023-02-02T13:12:21;32.67;;;14.15;;
73452;SDS011;61687;56.232;43.854;2023-02-02T13:14:51;36.28;;;15.20;;
73452;SDS011;61687;56.232;43.854;2023-02-02T13:17:39;35.60;;;15.05;;
73452;SDS011;61687;56.232;43.854;2023-02-02T13:25:49;36.33;;;15.35;;
73452;SDS011;61687;56.232;43.854;2023-02-02T13:31:17;40.67;;;16.10;;
73452;SDS011;61687;56.232;43.854;2023-02-02T13:36:58;35.53;;;15.85;;
73452;SDS011;61687;56.232;43.854;2023-02-02T13:39:39;39.35;;;14.57;;
73452;SDS011;61687;56.232;43.854;2023-02-02T13:42:14;37.65;;;15.48;;
73452;SDS011;61687;56.232;43.854;2023-02-02T13:44:55;34.55;;;14.85;;
73452;SDS011;61687;56.232;43.854;2023-02-02T13:47:39;35.25;;;15.18;;
73452;SDS011;61687;56.232;43.854;2023-02-02T13:50:15;34.97;;;14.57;;
73452;SDS011;61687;56.232;43.854;2023-02-02T13:55:33;41.00;;;16.10;;
73452;SDS011;61687;56.232;43.854;2023-02-02T14:01:09;42.50;;;16.95;;
73452;SDS011;61687;56.232;43.854;2023-02-02T14:03:39;38.88;;;14.82;;
73452;SDS011;61687;56.232;43.854;2023-02-02T14:06:09;41.63;;;16.90;;
73452;SDS011;61687;56.232;43.854;2023-02-02T14:08:45;45.47;;;17.90;;
73452;SDS011;61687;56.232;43.854;2023-02-02T14:11:17;45.20;;;16.67;;
73452;SDS011;61687;56.232;43.854;2023-02-02T14:13:57;43.13;;;15.70;;
73452;SDS011;61687;56.232;43.854;2023-02-02T14:16:50;39.70;;;15.38;;
73452;SDS011;61687;56.232;43.854;2023-02-02T14:19:18;43.58;;;16.75;;
73452;SDS011;61687;56.232;43.854;2023-02-02T14:27:00;40.57;;;16.33;;
73452;SDS011;61687;56.232;43.854;2023-02-02T14:29:33;38.83;;;15.80;;
73452;SDS011;61687;56.232;43.854;2023-02-02T14:34:47;36.63;;;14.52;;
73452;SDS011;61687;56.232;43.854;2023-02-02T14:45:15;34.63;;;15.82;;
73452;SDS011;61687;56.232;43.854;2023-02-02T14:47:52;32.70;;;14.40;;
73452;SDS011;61687;56.232;43.854;2023-02-02T14:50:25;33.87;;;14.83;;
73452;SDS011;61687;56.232;43.854;2023-02-02T14:52:58;35.92;;;13.50;;
73452;SDS011;61687;56.232;43.854;2023-02-02T14:55:27;31.90;;;13.90;;
73452;SDS011;61687;56.232;43.854;2023-02-02T14:57:54;31.10;;;13.27;;
73452;SDS011;61687;56.232;43.854;2023-02-02T15:00:22;31.70;;;14.38;;
73452;SDS011;61687;56.232;43.854;2023-02-02T15:02:52;33.20;;;15.13;;
73452;SDS011;61687;56.232;43.854;2023-02-02T15:07:54;34.50;;;14.30;;
73452;SDS011;61687;56.232;43.854;2023-02-02T15:13:14;32.60;;;14.47;;
73452;SDS011;61687;56.232;43.854;2023-02-02T15:15:43;34.88;;;13.80;;
73452;SDS011;61687;56.232;43.854;2023-02-02T15:18:15;35.08;;;14.27;;
73452;SDS011;61687;56.232;43.854;2023-02-02T15:20:52;32.78;;;13.00;;
73452;SDS011;61687;56.232;43.854;2023-02-02T15:37:19;34.10;;;15.27;;
73452;SDS011;61687;56.232;43.854;2023-02-02T15:39:53;33.30;;;14.07;;
73452;SDS011;61687;56.232;43.854;2023-02-02T15:42:22;34.70;;;13.73;;
73452;SDS011;61687;56.232;43.854;2023-02-02T15:45:33;30.15;;;13.38;;
73452;SDS011;61687;56.232;43.854;2023-02-02T15:48:05;36.20;;;13.75;;
73452;SDS011;61687;56.232;43.854;2023-02-02T15:50:43;33.25;;;13.40;;
73452;SDS011;61687;56.232;43.854;2023-02-02T15:53:17;31.00;;;12.67;;
73452;SDS011;61687;56.232;43.854;2023-02-02T15:55:46;28.70;;;12.05;;
73452;SDS011;61687;56.232;43.854;2023-02-02T15:58:22;31.92;;;13.05;;
73452;SDS011;61687;56.232;43.854;2023-02-02T16:01:05;35.08;;;14.48;;
73452;SDS011;61687;56.232;43.854;2023-02-02T16:04:06;32.00;;;14.13;;
73452;SDS011;61687;56.232;43.854;2023-02-02T16:06:32;34.58;;;13.60;;
73452;SDS011;61687;56.232;43.854;2023-02-02T16:09:01;31.98;;;14.77;;
73452;SDS011;61687;56.232;43.854;2023-02-02T16:11:28;33.25;;;14.23;;
73452;SDS011;61687;56.232;43.854;2023-02-02T16:14:00;30.42;;;13.35;;
73452;SDS011;61687;56.232;43.854;2023-02-02T16:16:32;31.42;;;13.80;;
73452;SDS011;61687;56.232;43.854;2023-02-02T16:19:12;36.83;;;14.15;;
73452;SDS011;61687;56.232;43.854;2023-02-02T16:21:58;34.83;;;14.43;;
73452;SDS011;61687;56.232;43.854;2023-02-02T16:24:30;34.70;;;14.50;;
73452;SDS011;61687;56.232;43.854;2023-02-02T16:27:00;35.42;;;14.82;;
73452;SDS011;61687;56.232;43.854;2023-02-02T16:29:30;32.83;;;14.13;;
73452;SDS011;61687;56.232;43.854;2023-02-02T16:31:57;36.78;;;14.75;;
73452;SDS011;61687;56.232;43.854;2023-02-02T16:37:15;31.75;;;13.82;;
73452;SDS011;61687;56.232;43.854;2023-02-02T16:39:50;32.85;;;14.55;;
73452;SDS011;61687;56.232;43.854;2023-02-02T16:42:27;32.95;;;14.40;;
73452;SDS011;61687;56.232;43.854;2023-02-02T16:44:55;35.20;;;14.20;;
73452;SDS011;61687;56.232;43.854;2023-02-02T16:49:51;36.97;;;15.23;;
73452;SDS011;61687;56.232;43.854;2023-02-02T16:52:18;32.30;;;14.23;;
73452;SDS011;61687;56.232;43.854;2023-02-02T16:54:55;33.92;;;15.07;;
73452;SDS011;61687;56.232;43.854;2023-02-02T16:57:26;33.72;;;13.63;;
73452;SDS011;61687;56.232;43.854;2023-02-02T17:00:00;35.03;;;13.90;;
73452;SDS011;61687;56.232;43.854;2023-02-02T17:02:32;37.70;;;14.55;;
73452;SDS011;61687;56.232;43.854;2023-02-02T17:05:15;36.65;;;15.27;;
73452;SDS011;61687;56.232;43.854;2023-02-02T17:07:55;32.03;;;13.27;;
73452;SDS011;61687;56.232;43.854;2023-02-02T17:10:24;33.03;;;14.00;;
73452;SDS011;61687;56.232;43.854;2023-02-02T17:13:01;35.00;;;15.27;;
73452;SDS011;61687;56.232;43.854;2023-02-02T17:15:50;36.72;;;14.70;;